createdAt,value
2017-09-28T00:01:58.773Z,13.43
2017-09-28T00:04:26.382Z,15.93
2017-09-28T00:06:54.088Z,19.10
2017-09-28T00:09:21.699Z,17.40
2017-09-28T00:11:49.334Z,16.40
2017-09-28T00:14:16.929Z,16.80
2017-09-28T00:16:44.694Z,15.10
2017-09-28T00:19:12.347Z,13.87
2017-09-28T00:21:39.999Z,16.40
2017-09-28T00:24:07.621Z,17.17
2017-09-28T00:26:35.239Z,17.27
2017-09-28T00:29:02.929Z,16.63
2017-09-28T00:31:30.575Z,15.50
2017-09-28T00:33:58.187Z,17.80
2017-09-28T00:36:25.835Z,18.50
2017-09-28T00:38:53.464Z,17.63
2017-09-28T00:41:21.080Z,17.90
2017-09-28T00:43:49.422Z,18.80
2017-09-28T00:46:17.025Z,18.73
2017-09-28T00:48:44.681Z,20.80
2017-09-28T00:51:12.321Z,18.90
2017-09-28T00:53:39.942Z,17.87
2017-09-28T00:56:07.603Z,18.73
2017-09-28T00:58:35.234Z,20.30
2017-09-28T01:01:02.846Z,19.50
2017-09-28T01:03:30.474Z,17.50
2017-09-28T01:05:58.088Z,17.80
2017-09-28T01:08:25.765Z,19.80
2017-09-28T01:10:53.360Z,17.17
2017-09-28T01:13:21.003Z,18.37
2017-09-28T01:15:48.688Z,16.23
2017-09-28T01:18:16.330Z,17.30
2017-09-28T01:20:43.954Z,19.00
2017-09-28T01:23:11.651Z,17.77
2017-09-28T01:25:39.250Z,19.47
2017-09-28T01:28:06.854Z,19.23
2017-09-28T01:30:34.483Z,18.20
2017-09-28T01:33:02.100Z,19.60
2017-09-28T01:35:29.719Z,19.67
2017-09-28T01:37:57.323Z,19.43
2017-09-28T01:40:25.086Z,18.10
2017-09-28T01:42:52.694Z,19.53
2017-09-28T01:45:20.331Z,19.37
2017-09-28T01:47:47.906Z,18.80
2017-09-28T01:50:15.630Z,18.13
2017-09-28T01:52:43.222Z,22.90
2017-09-28T01:55:10.838Z,19.10
2017-09-28T01:57:38.450Z,20.53
2017-09-28T02:00:06.074Z,19.90
2017-09-28T02:02:33.698Z,20.80
2017-09-28T02:05:01.350Z,21.47
2017-09-28T02:07:28.937Z,20.30
2017-09-28T02:09:56.602Z,20.80
2017-09-28T02:12:24.224Z,20.77
2017-09-28T02:14:51.847Z,18.97
2017-09-28T02:17:19.552Z,22.90
2017-09-28T02:19:47.177Z,22.27
2017-09-28T02:22:14.777Z,19.90
2017-09-28T02:24:42.396Z,19.83
2017-09-28T02:27:10.022Z,21.27
2017-09-28T02:29:37.628Z,20.13
2017-09-28T02:32:05.343Z,22.07
2017-09-28T02:34:32.947Z,19.90
2017-09-28T02:37:00.571Z,20.77
2017-09-28T02:39:28.192Z,22.13
2017-09-28T02:41:55.846Z,22.37
2017-09-28T02:44:23.499Z,20.07
2017-09-28T02:46:51.114Z,21.33
2017-09-28T02:49:18.723Z,21.93
2017-09-28T02:51:46.367Z,22.17
2017-09-28T02:54:13.976Z,20.70
2017-09-28T02:56:41.606Z,22.03
2017-09-28T02:59:09.211Z,22.97
2017-09-28T03:01:36.847Z,22.13
2017-09-28T03:04:04.458Z,25.10
2017-09-28T03:06:32.083Z,22.77
2017-09-28T03:08:59.693Z,22.67
2017-09-28T03:11:27.372Z,26.33
2017-09-28T03:13:54.977Z,22.27
2017-09-28T03:16:22.640Z,20.20
2017-09-28T03:18:50.238Z,21.43
2017-09-28T03:21:17.892Z,22.03
2017-09-28T03:23:45.490Z,20.47
2017-09-28T03:26:13.143Z,20.47
2017-09-28T03:28:40.759Z,19.40
2017-09-28T03:31:08.395Z,20.63
2017-09-28T03:33:35.998Z,23.13
2017-09-28T03:36:03.638Z,19.90
2017-09-28T03:38:31.243Z,20.37
2017-09-28T03:40:58.879Z,20.07
2017-09-28T03:43:26.500Z,21.27
2017-09-28T03:45:54.126Z,21.83
2017-09-28T03:48:21.755Z,20.10
2017-09-28T03:50:49.498Z,16.87
2017-09-28T03:53:17.107Z,20.83
2017-09-28T03:55:44.734Z,22.70
2017-09-28T03:58:12.345Z,22.67
2017-09-28T04:00:39.974Z,22.73
2017-09-28T04:03:07.611Z,22.63
2017-09-28T04:05:35.274Z,21.70
2017-09-28T04:08:02.876Z,22.13
2017-09-28T04:10:31.440Z,22.87
2017-09-28T04:12:59.053Z,22.20
2017-09-28T04:15:26.682Z,20.37
2017-09-28T04:17:54.303Z,30.87
2017-09-28T04:20:22.067Z,23.67
2017-09-28T04:22:50.639Z,23.53
2017-09-28T04:25:18.218Z,20.20
2017-09-28T04:27:45.894Z,23.73
2017-09-28T04:30:13.495Z,21.37
2017-09-28T04:32:41.151Z,31.43
2017-09-28T04:35:08.760Z,23.20
2017-09-28T04:37:36.391Z,20.23
2017-09-28T04:40:03.985Z,20.40
2017-09-28T04:42:31.658Z,18.97
2017-09-28T04:44:59.262Z,19.90
2017-09-28T04:47:26.907Z,20.50
2017-09-28T04:49:54.525Z,20.70
2017-09-28T04:52:22.141Z,19.40
2017-09-28T04:54:49.783Z,25.23
2017-09-28T04:57:17.421Z,27.37
2017-09-28T04:59:46.464Z,19.93
2017-09-28T05:02:14.103Z,22.47
2017-09-28T05:04:41.719Z,20.47
2017-09-28T05:07:09.388Z,27.17
2017-09-28T05:09:37.151Z,21.70
2017-09-28T05:12:04.913Z,21.37
2017-09-28T05:14:32.529Z,19.43
2017-09-28T05:17:00.161Z,23.47
2017-09-28T05:19:27.780Z,21.80
2017-09-28T05:21:55.411Z,20.43
2017-09-28T05:24:23.035Z,21.73
2017-09-28T05:26:50.702Z,18.00
2017-09-28T05:29:18.337Z,21.43
2017-09-28T05:31:47.357Z,23.60
2017-09-28T05:34:14.986Z,18.53
2017-09-28T05:36:42.699Z,20.17
2017-09-28T05:39:10.627Z,20.27
2017-09-28T05:41:38.345Z,22.87
2017-09-28T05:44:06.106Z,21.93
2017-09-28T05:46:33.767Z,24.53
2017-09-28T05:49:01.359Z,19.63
2017-09-28T05:51:28.992Z,20.20
2017-09-28T05:53:56.818Z,22.13
2017-09-28T05:56:24.559Z,20.50
2017-09-28T05:58:52.210Z,20.30
2017-09-28T06:01:20.809Z,21.60
2017-09-28T06:03:49.324Z,23.10
2017-09-28T06:06:17.079Z,22.63
2017-09-28T06:08:44.857Z,24.60
2017-09-28T06:11:12.467Z,21.57
2017-09-28T06:13:40.185Z,22.40
2017-09-28T06:16:07.852Z,21.87
2017-09-28T06:18:35.634Z,21.67
2017-09-28T06:21:03.235Z,30.23
2017-09-28T06:23:30.924Z,21.73
2017-09-28T06:25:58.533Z,21.33
2017-09-28T06:28:26.150Z,21.77
2017-09-28T06:30:53.752Z,29.33
2017-09-28T06:33:21.387Z,21.30
2017-09-28T06:35:48.983Z,22.40
2017-09-28T06:38:16.610Z,21.57
2017-09-28T06:40:44.268Z,21.37
2017-09-28T06:43:11.915Z,24.20
2017-09-28T06:45:39.721Z,26.17
2017-09-28T06:48:07.466Z,22.83
2017-09-28T06:50:35.077Z,23.07
2017-09-28T06:53:02.712Z,19.77
2017-09-28T06:55:30.311Z,21.80
2017-09-28T06:57:57.944Z,22.37
2017-09-28T07:00:25.683Z,19.23
2017-09-28T07:02:53.298Z,21.57
2017-09-28T07:05:20.931Z,24.10
2017-09-28T07:07:48.572Z,22.80
2017-09-28T07:10:16.166Z,21.03
2017-09-28T07:12:43.800Z,21.00
2017-09-28T07:15:11.497Z,20.27
2017-09-28T07:17:39.112Z,20.00
2017-09-28T07:20:06.734Z,21.20
2017-09-28T07:22:34.328Z,21.07
2017-09-28T07:25:01.993Z,21.70
2017-09-28T07:27:29.659Z,23.57
2017-09-28T07:29:57.270Z,20.57
2017-09-28T07:32:24.879Z,21.10
2017-09-28T07:34:52.502Z,20.83
2017-09-28T07:37:20.990Z,22.00
2017-09-28T07:39:48.583Z,20.93
2017-09-28T07:42:16.193Z,19.53
2017-09-28T07:44:43.823Z,18.90
2017-09-28T07:47:11.414Z,21.50
2017-09-28T07:49:39.084Z,20.30
2017-09-28T07:52:06.735Z,19.40
2017-09-28T07:54:34.343Z,20.93
2017-09-28T07:57:01.959Z,19.93
2017-09-28T07:59:29.608Z,19.77
2017-09-28T08:01:57.210Z,18.30
2017-09-28T08:04:24.838Z,20.27
2017-09-28T08:06:52.511Z,22.20
2017-09-28T08:09:20.135Z,18.90
2017-09-28T08:11:47.727Z,21.33
2017-09-28T08:14:15.374Z,20.53
2017-09-28T08:16:43.064Z,19.97
2017-09-28T08:19:10.800Z,22.17
2017-09-28T08:21:38.408Z,21.23
2017-09-28T08:24:06.126Z,21.50
2017-09-28T08:26:33.742Z,21.73
2017-09-28T08:29:01.387Z,18.77
2017-09-28T08:31:28.986Z,18.53
2017-09-28T08:33:56.616Z,18.93
2017-09-28T08:36:24.233Z,18.87
2017-09-28T08:38:51.894Z,18.50
2017-09-28T08:41:19.586Z,19.67
2017-09-28T08:43:47.198Z,18.67
2017-09-28T08:46:14.834Z,20.20
2017-09-28T08:48:42.451Z,19.13
2017-09-28T08:51:10.087Z,18.50
2017-09-28T08:53:37.746Z,20.07
2017-09-28T08:56:05.351Z,22.57
2017-09-28T08:58:32.966Z,20.63
2017-09-28T09:01:00.603Z,18.90
2017-09-28T09:03:28.215Z,19.90
2017-09-28T09:05:55.870Z,25.10
2017-09-28T09:08:23.462Z,18.90
2017-09-28T09:10:51.102Z,19.87
2017-09-28T09:13:18.764Z,19.73
2017-09-28T09:15:46.428Z,18.97
2017-09-28T09:18:14.076Z,16.83
2017-09-28T09:20:41.736Z,19.37
2017-09-28T09:23:09.322Z,18.90
2017-09-28T09:25:36.962Z,17.93
2017-09-28T09:28:04.573Z,17.67
2017-09-28T09:30:32.201Z,16.47
2017-09-28T09:32:59.960Z,18.10
2017-09-28T09:35:27.591Z,17.00
2017-09-28T09:37:55.274Z,17.17
2017-09-28T09:40:22.917Z,16.77
2017-09-28T09:42:50.535Z,16.50
2017-09-28T09:45:18.181Z,14.87
2017-09-28T09:47:45.806Z,16.40
2017-09-28T09:50:13.430Z,16.23
2017-09-28T09:52:41.187Z,20.53
2017-09-28T09:55:08.810Z,17.10
2017-09-28T09:57:36.447Z,15.17
2017-09-28T10:00:04.083Z,16.43
2017-09-28T10:02:31.745Z,17.07
2017-09-28T10:04:59.386Z,15.97
2017-09-28T10:07:34.764Z,16.13
2017-09-28T10:10:08.695Z,14.30
2017-09-28T10:12:37.556Z,14.87
2017-09-28T10:15:09.289Z,16.63
2017-09-28T10:17:36.980Z,15.47
2017-09-28T10:20:04.606Z,13.90
2017-09-28T10:22:32.199Z,16.50
2017-09-28T10:24:59.835Z,15.23
2017-09-28T10:27:27.426Z,16.33
2017-09-28T10:29:55.072Z,13.63
2017-09-28T10:32:22.678Z,15.60
2017-09-28T10:34:50.283Z,15.90
2017-09-28T10:37:17.908Z,14.80
2017-09-28T10:39:46.942Z,15.77
2017-09-28T10:42:14.601Z,14.73
2017-09-28T10:44:42.217Z,13.93
2017-09-28T10:47:09.847Z,14.27
2017-09-28T10:49:37.463Z,13.60
2017-09-28T10:52:05.095Z,14.10
2017-09-28T10:54:32.728Z,14.30
2017-09-28T10:57:00.349Z,13.53
2017-09-28T10:59:27.950Z,13.47
2017-09-28T11:01:55.578Z,14.40
2017-09-28T11:04:23.187Z,16.43
2017-09-28T11:06:50.825Z,14.43
2017-09-28T11:09:18.446Z,13.90
2017-09-28T11:11:46.079Z,11.40
2017-09-28T11:14:13.927Z,12.20
2017-09-28T11:16:43.346Z,12.90
2017-09-28T11:19:10.974Z,15.60
2017-09-28T11:21:38.716Z,12.67
2017-09-28T11:24:06.319Z,15.50
2017-09-28T11:26:33.983Z,18.00
2017-09-28T11:29:01.590Z,15.70
2017-09-28T11:31:29.250Z,14.67
2017-09-28T11:33:56.951Z,12.67
2017-09-28T11:36:24.574Z,12.70
2017-09-28T11:38:52.207Z,11.83
2017-09-28T11:41:19.959Z,12.70
2017-09-28T11:43:47.550Z,11.60
2017-09-28T11:46:15.287Z,11.20
2017-09-28T11:48:42.910Z,11.20
2017-09-28T11:51:10.806Z,11.10
2017-09-28T11:53:38.737Z,12.50
2017-09-28T11:56:06.480Z,13.07
2017-09-28T11:58:34.108Z,13.13
2017-09-28T12:01:01.766Z,11.67
2017-09-28T12:03:29.362Z,11.57
2017-09-28T12:05:56.967Z,10.40
2017-09-28T12:08:24.634Z,10.43
2017-09-28T12:10:52.231Z,10.77
2017-09-28T12:13:20.056Z,11.97
2017-09-28T12:15:47.705Z,10.67
2017-09-28T12:18:16.541Z,12.20
2017-09-28T12:20:44.491Z,12.13
2017-09-28T12:23:12.184Z,10.10
2017-09-28T12:25:39.780Z,10.90
2017-09-28T12:28:07.430Z,13.83
2017-09-28T12:30:35.028Z,9.57
2017-09-28T12:33:02.784Z,9.97
2017-09-28T12:35:30.378Z,11.80
2017-09-28T12:37:58.012Z,10.60
2017-09-28T12:40:25.608Z,8.77
2017-09-28T12:42:53.251Z,8.17
2017-09-28T12:45:20.835Z,9.20
2017-09-28T12:47:48.461Z,9.47
2017-09-28T12:50:16.075Z,9.40
2017-09-28T12:52:43.666Z,8.37
2017-09-28T12:55:11.306Z,8.77
2017-09-28T12:57:38.968Z,7.57
2017-09-28T13:00:06.655Z,7.80
2017-09-28T13:02:34.266Z,8.30
2017-09-28T13:05:01.908Z,8.80
2017-09-28T13:07:29.517Z,13.80
2017-09-28T13:09:57.151Z,10.40
2017-09-28T13:12:24.815Z,8.97
2017-09-28T13:14:52.542Z,8.23
2017-09-28T13:17:20.131Z,9.90
2017-09-28T13:19:47.754Z,7.80
2017-09-28T13:22:15.370Z,8.30
2017-09-28T13:24:42.996Z,7.80
2017-09-28T13:27:10.592Z,7.67
2017-09-28T13:29:38.232Z,6.73
2017-09-28T13:32:05.839Z,8.10
2017-09-28T13:34:33.620Z,7.83
2017-09-28T13:37:01.219Z,7.20
2017-09-28T13:39:28.844Z,6.60
2017-09-28T13:41:56.470Z,7.73
2017-09-28T13:44:24.086Z,8.33
2017-09-28T13:46:51.716Z,6.90
2017-09-28T13:49:19.523Z,7.50
2017-09-28T13:51:47.126Z,9.60
2017-09-28T13:54:14.718Z,7.20
2017-09-28T13:56:42.362Z,7.43
2017-09-28T13:59:09.953Z,7.50
2017-09-28T14:01:37.638Z,6.90
2017-09-28T14:04:05.231Z,7.70
2017-09-28T14:06:33.024Z,7.43
2017-09-28T14:09:00.629Z,7.27
2017-09-28T14:11:28.377Z,7.10
2017-09-28T14:13:56.052Z,7.50
2017-09-28T14:16:23.683Z,6.70
2017-09-28T14:18:51.327Z,7.80
2017-09-28T14:21:19.019Z,9.27
2017-09-28T14:23:46.614Z,7.93
2017-09-28T14:26:14.275Z,9.40
2017-09-28T14:28:41.963Z,7.00
2017-09-28T14:31:11.090Z,6.97
2017-09-28T14:33:39.550Z,6.73
2017-09-28T14:36:07.169Z,6.83
2017-09-28T14:38:34.759Z,6.80
2017-09-28T14:41:02.391Z,7.30
2017-09-28T14:43:30.015Z,6.87
2017-09-28T14:45:57.714Z,7.10
2017-09-28T14:48:25.398Z,9.57
2017-09-28T14:50:53.071Z,7.57
2017-09-28T14:53:20.662Z,8.30
2017-09-28T14:55:48.274Z,7.03
2017-09-28T14:58:15.957Z,7.10
2017-09-28T15:00:43.585Z,7.47
2017-09-28T15:03:11.214Z,7.50
2017-09-28T15:05:38.811Z,7.70
2017-09-28T15:08:06.451Z,7.37
2017-09-28T15:10:34.155Z,6.03
2017-09-28T15:13:01.880Z,7.07
2017-09-28T15:15:29.479Z,6.10
2017-09-28T15:17:57.109Z,6.63
2017-09-28T15:20:24.755Z,6.83
2017-09-28T15:22:52.387Z,8.80
2017-09-28T15:25:20.087Z,6.63
2017-09-28T15:27:47.705Z,6.40
2017-09-28T15:30:15.318Z,7.53
2017-09-28T15:32:42.961Z,7.97
2017-09-28T15:35:11.410Z,6.93
2017-09-28T15:37:39.032Z,12.50
2017-09-28T15:40:06.628Z,7.50
2017-09-28T15:42:34.263Z,8.47
2017-09-28T15:45:01.948Z,7.80
2017-09-28T15:47:29.573Z,7.57
2017-09-28T15:49:57.158Z,8.00
2017-09-28T15:52:24.790Z,8.40
2017-09-28T15:54:52.394Z,7.47
2017-09-28T15:57:20.109Z,7.73
2017-09-28T15:59:47.869Z,8.23
2017-09-28T16:02:15.420Z,8.53
2017-09-28T16:04:43.042Z,8.20
2017-09-28T16:07:10.767Z,8.90
2017-09-28T16:09:38.399Z,8.40
2017-09-28T16:12:06.019Z,8.67
2017-09-28T16:14:33.658Z,8.60
2017-09-28T16:17:01.299Z,9.83
2017-09-28T16:19:29.075Z,7.73
2017-09-28T16:21:56.692Z,8.27
2017-09-28T16:24:24.646Z,8.90
2017-09-28T16:26:52.294Z,11.43
2017-09-28T16:29:20.086Z,7.20
2017-09-28T16:31:47.686Z,8.40
2017-09-28T16:34:15.382Z,8.50
2017-09-28T16:36:43.003Z,9.10
2017-09-28T16:39:10.718Z,9.40
2017-09-28T16:41:38.328Z,68.47
2017-09-28T16:44:06.154Z,8.57
2017-09-28T16:46:33.838Z,9.93
2017-09-28T16:49:01.463Z,8.43
2017-09-28T16:51:29.162Z,9.40
2017-09-28T16:53:56.770Z,8.57
2017-09-28T16:56:24.387Z,9.50
2017-09-28T16:58:51.981Z,9.37
2017-09-28T17:01:19.616Z,9.77
2017-09-28T17:03:47.234Z,11.97
2017-09-28T17:06:14.887Z,10.57
2017-09-28T17:08:42.512Z,8.80
2017-09-28T17:11:10.143Z,9.90
2017-09-28T17:13:37.766Z,8.30
2017-09-28T17:16:05.412Z,9.23
2017-09-28T17:18:33.011Z,11.43
2017-09-28T17:21:00.822Z,6.87
2017-09-28T17:23:28.424Z,12.83
2017-09-28T17:25:56.127Z,8.00
2017-09-28T17:28:23.768Z,7.70
2017-09-28T17:30:51.392Z,9.73
2017-09-28T17:33:19.013Z,10.03
2017-09-28T17:35:46.631Z,10.60
2017-09-28T17:38:14.278Z,9.07
2017-09-28T17:40:41.933Z,7.53
2017-09-28T17:43:09.562Z,8.03
2017-09-28T17:45:37.260Z,8.77
2017-09-28T17:48:04.911Z,7.23
2017-09-28T17:50:32.510Z,9.43
2017-09-28T17:53:00.363Z,7.40
2017-09-28T17:55:27.986Z,14.10
2017-09-28T17:57:55.593Z,9.57
2017-09-28T18:00:23.228Z,9.33
2017-09-28T18:02:50.867Z,8.93
2017-09-28T18:05:18.493Z,8.33
2017-09-28T18:07:46.108Z,8.50
2017-09-28T18:10:15.430Z,8.20
2017-09-28T18:12:43.051Z,8.57
2017-09-28T18:15:10.692Z,9.53
2017-09-28T18:17:38.301Z,8.30
2017-09-28T18:20:06.071Z,10.20
2017-09-28T18:22:33.690Z,10.23
2017-09-28T18:25:01.374Z,9.07
2017-09-28T18:27:28.992Z,8.23
2017-09-28T18:29:56.635Z,8.97
2017-09-28T18:32:24.240Z,10.23
2017-09-28T18:34:52.582Z,9.60
2017-09-28T18:37:20.176Z,11.67
2017-09-28T18:39:47.799Z,11.03
2017-09-28T18:42:15.468Z,11.80
2017-09-28T18:44:43.098Z,10.90
2017-09-28T18:47:10.750Z,9.00
2017-09-28T18:49:38.382Z,10.00
2017-09-28T18:52:06.017Z,8.63
2017-09-28T18:54:33.651Z,9.13
2017-09-28T18:57:01.398Z,9.77
2017-09-28T18:59:29.013Z,11.80
2017-09-28T19:01:56.669Z,7.93
2017-09-28T19:04:24.278Z,7.60
2017-09-28T19:06:51.903Z,7.50
2017-09-28T19:09:19.532Z,9.70
2017-09-28T19:11:47.203Z,8.40
2017-09-28T19:14:14.859Z,8.10
2017-09-28T19:16:42.502Z,7.67
2017-09-28T19:19:10.192Z,10.47
2017-09-28T19:21:37.788Z,8.60
2017-09-28T19:24:05.430Z,8.87
2017-09-28T19:26:33.102Z,7.50
2017-09-28T19:29:00.793Z,8.80
2017-09-28T19:31:28.421Z,9.53
2017-09-28T19:33:56.070Z,11.97
2017-09-28T19:36:23.677Z,53.37
2017-09-28T19:38:51.349Z,31.77
2017-09-28T19:41:18.964Z,37.03
2017-09-28T19:43:46.630Z,11.17
2017-09-28T19:46:14.254Z,10.20
2017-09-28T19:48:41.935Z,9.10
2017-09-28T19:51:09.571Z,8.80
2017-09-28T19:53:37.222Z,8.43
2017-09-28T19:56:05.018Z,8.77
2017-09-28T19:58:32.845Z,15.53
2017-09-28T20:01:00.570Z,10.50
2017-09-28T20:03:28.436Z,12.37
2017-09-28T20:05:56.117Z,13.10
2017-09-28T20:08:23.725Z,11.27
2017-09-28T20:10:51.367Z,11.17
2017-09-28T20:13:18.982Z,10.80
2017-09-28T20:15:46.722Z,11.90
2017-09-28T20:18:14.352Z,10.67
2017-09-28T20:20:42.063Z,18.93
2017-09-28T20:23:09.738Z,52.73
2017-09-28T20:25:38.131Z,24.60
2017-09-28T20:28:05.757Z,16.10
2017-09-28T20:30:36.750Z,17.13
2017-09-28T20:33:12.158Z,16.73
2017-09-28T20:35:54.615Z,14.83
2017-09-28T20:38:37.133Z,12.37
2017-09-28T20:41:06.100Z,10.67
2017-09-28T20:43:35.368Z,10.97
2017-09-28T20:46:03.641Z,11.43
2017-09-28T20:48:31.643Z,11.27
2017-09-28T20:50:59.783Z,11.10
2017-09-28T20:53:27.815Z,12.33
2017-09-28T20:58:47.547Z,12.13
2017-09-28T21:01:15.771Z,11.50
2017-09-28T21:06:32.817Z,13.70
2017-09-28T21:09:01.007Z,13.53
2017-09-28T21:11:29.256Z,15.40
2017-09-28T21:13:57.068Z,14.00
2017-09-28T21:16:25.305Z,13.00
2017-09-28T21:18:53.106Z,13.17
2017-09-28T21:21:20.940Z,13.37
2017-09-28T21:26:22.298Z,13.13
2017-09-28T21:28:50.269Z,14.73
2017-09-28T21:31:18.244Z,14.50
2017-09-28T21:33:46.308Z,13.90
2017-09-28T21:36:14.276Z,12.63
2017-09-28T21:38:42.485Z,14.00
2017-09-28T21:41:10.630Z,13.50
2017-09-28T21:43:38.628Z,13.13
2017-09-28T21:46:13.532Z,12.73
2017-09-28T21:48:41.562Z,12.10
2017-09-28T21:51:09.163Z,13.50
2017-09-28T21:53:36.811Z,16.33
2017-09-28T21:56:04.427Z,14.50
2017-09-28T21:58:32.074Z,15.10
2017-09-28T22:00:59.683Z,14.73
2017-09-28T22:03:27.308Z,13.80
2017-09-28T22:05:54.923Z,13.67
2017-09-28T22:08:22.567Z,14.10
2017-09-28T22:10:50.219Z,15.17
2017-09-28T22:13:17.833Z,15.40
2017-09-28T22:15:45.460Z,15.93
2017-09-28T22:18:13.082Z,16.97
2017-09-28T22:20:40.678Z,13.67
2017-09-28T22:23:08.298Z,17.87
2017-09-28T22:25:35.899Z,17.03
2017-09-28T22:28:03.527Z,17.10
2017-09-28T22:30:31.126Z,16.33
2017-09-28T22:32:58.789Z,15.20
2017-09-28T22:35:26.478Z,16.60
2017-09-28T22:37:54.123Z,14.97
2017-09-28T22:40:21.727Z,14.77
2017-09-28T22:42:49.333Z,16.07
2017-09-28T22:45:16.958Z,16.10
2017-09-28T22:47:44.555Z,14.37
2017-09-28T22:50:12.182Z,15.57
2017-09-28T22:52:39.789Z,14.97
2017-09-28T22:55:07.446Z,15.47
2017-09-28T22:57:35.070Z,16.40
2017-09-28T23:00:02.715Z,15.83
2017-09-28T23:02:30.311Z,14.90
2017-09-28T23:04:57.934Z,14.33
2017-09-28T23:07:25.534Z,15.97
2017-09-28T23:09:53.155Z,14.60
2017-09-28T23:12:20.772Z,15.70
2017-09-28T23:14:48.399Z,14.17
2017-09-28T23:17:16.011Z,15.90
2017-09-28T23:19:43.667Z,15.13
2017-09-28T23:22:11.283Z,15.17
2017-09-28T23:24:38.890Z,14.90
2017-09-28T23:27:06.534Z,16.10
2017-09-28T23:29:34.158Z,17.23
2017-09-28T23:32:01.814Z,15.67
2017-09-28T23:34:29.523Z,15.03
2017-09-28T23:36:57.162Z,13.93
2017-09-28T23:39:24.762Z,15.00
2017-09-28T23:41:52.393Z,12.70
2017-09-28T23:44:19.998Z,12.87
2017-09-28T23:46:47.648Z,15.67
2017-09-28T23:49:15.242Z,14.37
2017-09-28T23:51:42.965Z,13.20
2017-09-28T23:54:10.580Z,13.00
2017-09-28T23:56:38.220Z,15.23
2017-09-28T23:59:05.824Z,15.30
